sensor_id;sensor_type;location;lat;lon;timestamp;P1;durP1;ratioP1;P2;durP2;ratioP2
5890;SDS011;2971;52.420;7.080;2023-02-20T00:02:23;11.80;;;10.60;;
5890;SDS011;2971;52.420;7.080;2023-02-20T00:04:49;11.90;;;10.70;;
5890;SDS011;2971;52.420;7.080;2023-02-20T00:07:14;12.73;;;11.43;;
5890;SDS011;2971;52.420;7.080;2023-02-20T00:09:40;12.80;;;11.60;;
5890;SDS011;2971;52.420;7.080;2023-02-20T00:12:05;13.37;;;11.93;;
5890;SDS011;2971;52.420;7.080;2023-02-20T00:14:31;12.97;;;11.67;;
5890;SDS011;2971;52.420;7.080;2023-02-20T00:16:56;13.10;;;11.87;;
5890;SDS011;2971;52.420;7.080;2023-02-20T00:19:22;13.97;;;12.57;;
5890;SDS011;2971;52.420;7.080;2023-02-20T00:21:47;13.67;;;12.23;;
5890;SDS011;2971;52.420;7.080;2023-02-20T00:24:13;16.53;;;12.73;;
5890;SDS011;2971;52.420;7.080;2023-02-20T00:26:44;13.30;;;12.00;;
5890;SDS011;2971;52.420;7.080;2023-02-20T00:29:14;13.57;;;12.00;;
5890;SDS011;2971;52.420;7.080;2023-02-20T00:31:48;15.60;;;13.00;;
5890;SDS011;2971;52.420;7.080;2023-02-20T00:34:18;14.30;;;12.90;;
5890;SDS011;2971;52.420;7.080;2023-02-20T00:36:43;14.60;;;13.20;;
5890;SDS011;2971;52.420;7.080;2023-02-20T00:39:09;14.30;;;12.80;;
5890;SDS011;2971;52.420;7.080;2023-02-20T00:41:34;14.87;;;13.47;;
5890;SDS011;2971;52.420;7.080;2023-02-20T00:44:00;15.37;;;13.37;;
5890;SDS011;2971;52.420;7.080;2023-02-20T00:46:25;14.30;;;12.80;;
5890;SDS011;2971;52.420;7.080;2023-02-20T00:48:50;15.80;;;13.10;;
5890;SDS011;2971;52.420;7.080;2023-02-20T00:51:16;14.17;;;12.77;;
5890;SDS011;2971;52.420;7.080;2023-02-20T00:53:41;13.13;;;11.73;;
5890;SDS011;2971;52.420;7.080;2023-02-20T00:56:06;13.03;;;11.70;;
5890;SDS011;2971;52.420;7.080;2023-02-20T00:58:32;14.10;;;11.83;;
5890;SDS011;2971;52.420;7.080;2023-02-20T01:00:57;12.70;;;11.17;;
5890;SDS011;2971;52.420;7.080;2023-02-20T01:03:23;13.77;;;11.40;;
5890;SDS011;2971;52.420;7.080;2023-02-20T01:05:48;12.17;;;10.70;;
5890;SDS011;2971;52.420;7.080;2023-02-20T01:08:14;12.00;;;10.80;;
5890;SDS011;2971;52.420;7.080;2023-02-20T01:10:39;13.10;;;11.67;;
5890;SDS011;2971;52.420;7.080;2023-02-20T01:13:04;14.47;;;11.80;;
5890;SDS011;2971;52.420;7.080;2023-02-20T01:15:30;14.17;;;11.20;;
5890;SDS011;2971;52.420;7.080;2023-02-20T01:17:55;13.80;;;11.03;;
5890;SDS011;2971;52.420;7.080;2023-02-20T01:20:22;11.87;;;10.67;;
5890;SDS011;2971;52.420;7.080;2023-02-20T01:22:47;13.50;;;11.77;;
5890;SDS011;2971;52.420;7.080;2023-02-20T01:25:12;13.37;;;11.73;;
5890;SDS011;2971;52.420;7.080;2023-02-20T01:27:38;13.47;;;12.07;;
5890;SDS011;2971;52.420;7.080;2023-02-20T01:30:03;14.63;;;13.03;;
5890;SDS011;2971;52.420;7.080;2023-02-20T01:32:29;17.23;;;13.60;;
5890;SDS011;2971;52.420;7.080;2023-02-20T01:34:55;16.53;;;12.87;;
5890;SDS011;2971;52.420;7.080;2023-02-20T01:37:20;14.17;;;12.77;;
5890;SDS011;2971;52.420;7.080;2023-02-20T01:39:46;15.10;;;13.07;;
5890;SDS011;2971;52.420;7.080;2023-02-20T01:42:13;14.67;;;12.90;;
5890;SDS011;2971;52.420;7.080;2023-02-20T01:44:42;14.33;;;12.83;;
5890;SDS011;2971;52.420;7.080;2023-02-20T01:47:09;16.77;;;13.93;;
5890;SDS011;2971;52.420;7.080;2023-02-20T01:52:07;16.40;;;14.00;;
5890;SDS011;2971;52.420;7.080;2023-02-20T01:54:34;16.47;;;14.13;;
5890;SDS011;2971;52.420;7.080;2023-02-20T01:57:01;17.87;;;13.10;;
5890;SDS011;2971;52.420;7.080;2023-02-20T01:59:28;17.07;;;14.10;;
5890;SDS011;2971;52.420;7.080;2023-02-20T02:01:56;17.03;;;14.57;;
5890;SDS011;2971;52.420;7.080;2023-02-20T02:04:21;18.30;;;14.70;;
5890;SDS011;2971;52.420;7.080;2023-02-20T02:06:48;19.63;;;16.23;;
5890;SDS011;2971;52.420;7.080;2023-02-20T02:09:26;17.87;;;15.57;;
5890;SDS011;2971;52.420;7.080;2023-02-20T02:11:57;20.13;;;16.40;;
5890;SDS011;2971;52.420;7.080;2023-02-20T02:14:23;20.47;;;17.27;;
5890;SDS011;2971;52.420;7.080;2023-02-20T02:17:03;19.80;;;17.37;;
5890;SDS011;2971;52.420;7.080;2023-02-20T02:36:28;23.13;;;18.20;;
5890;SDS011;2971;52.420;7.080;2023-02-20T02:44:21;21.80;;;18.40;;
5890;SDS011;2971;52.420;7.080;2023-02-20T02:47:10;21.47;;;16.90;;
5890;SDS011;2971;52.420;7.080;2023-02-20T02:52:25;21.20;;;17.03;;
5890;SDS011;2971;52.420;7.080;2023-02-20T02:55:12;21.17;;;17.40;;
5890;SDS011;2971;52.420;7.080;2023-02-20T02:57:39;22.70;;;18.40;;
5890;SDS011;2971;52.420;7.080;2023-02-20T03:00:09;22.33;;;18.47;;
5890;SDS011;2971;52.420;7.080;2023-02-20T03:05:20;22.77;;;17.07;;
5890;SDS011;2971;52.420;7.080;2023-02-20T03:07:48;19.57;;;16.50;;
5890;SDS011;2971;52.420;7.080;2023-02-20T03:10:17;23.00;;;17.03;;
5890;SDS011;2971;52.420;7.080;2023-02-20T03:12:44;20.20;;;16.77;;
5890;SDS011;2971;52.420;7.080;2023-02-20T03:15:15;21.80;;;16.90;;
5890;SDS011;2971;52.420;7.080;2023-02-20T03:20:50;20.97;;;16.43;;
5890;SDS011;2971;52.420;7.080;2023-02-20T03:23:29;21.77;;;17.60;;
5890;SDS011;2971;52.420;7.080;2023-02-20T03:25:58;21.97;;;17.63;;
5890;SDS011;2971;52.420;7.080;2023-02-20T03:36:24;26.17;;;18.50;;
5890;SDS011;2971;52.420;7.080;2023-02-20T03:39:16;26.03;;;18.63;;
5890;SDS011;2971;52.420;7.080;2023-02-20T03:42:01;23.07;;;18.27;;
5890;SDS011;2971;52.420;7.080;2023-02-20T03:44:47;22.20;;;18.90;;
5890;SDS011;2971;52.420;7.080;2023-02-20T03:47:13;24.40;;;18.40;;
5890;SDS011;2971;52.420;7.080;2023-02-20T03:49:40;24.13;;;18.83;;
5890;SDS011;2971;52.420;7.080;2023-02-20T03:52:07;26.33;;;19.73;;
5890;SDS011;2971;52.420;7.080;2023-02-20T03:54:32;25.83;;;19.00;;
5890;SDS011;2971;52.420;7.080;2023-02-20T03:57:04;25.73;;;21.00;;
5890;SDS011;2971;52.420;7.080;2023-02-20T03:59:35;29.87;;;21.80;;
5890;SDS011;2971;52.420;7.080;2023-02-20T04:02:08;28.00;;;20.50;;
5890;SDS011;2971;52.420;7.080;2023-02-20T04:04:43;29.20;;;20.57;;
5890;SDS011;2971;52.420;7.080;2023-02-20T04:07:14;28.33;;;21.87;;
5890;SDS011;2971;52.420;7.080;2023-02-20T04:09:44;31.33;;;23.40;;
5890;SDS011;2971;52.420;7.080;2023-02-20T04:12:24;30.63;;;22.90;;
5890;SDS011;2971;52.420;7.080;2023-02-20T04:14:52;30.70;;;24.83;;
5890;SDS011;2971;52.420;7.080;2023-02-20T04:17:29;34.03;;;26.13;;
5890;SDS011;2971;52.420;7.080;2023-02-20T04:19:56;34.57;;;25.83;;
5890;SDS011;2971;52.420;7.080;2023-02-20T04:22:28;34.17;;;27.33;;
5890;SDS011;2971;52.420;7.080;2023-02-20T04:24:58;37.43;;;30.97;;
5890;SDS011;2971;52.420;7.080;2023-02-20T04:27:26;35.43;;;30.77;;
5890;SDS011;2971;52.420;7.080;2023-02-20T04:29:51;36.07;;;32.03;;
5890;SDS011;2971;52.420;7.080;2023-02-20T04:32:17;39.50;;;33.30;;
5890;SDS011;2971;52.420;7.080;2023-02-20T04:34:42;38.17;;;34.07;;
5890;SDS011;2971;52.420;7.080;2023-02-20T04:37:12;40.07;;;32.30;;
5890;SDS011;2971;52.420;7.080;2023-02-20T04:39:38;39.57;;;33.47;;
5890;SDS011;2971;52.420;7.080;2023-02-20T04:42:04;40.10;;;33.20;;
5890;SDS011;2971;52.420;7.080;2023-02-20T04:44:30;42.93;;;33.43;;
5890;SDS011;2971;52.420;7.080;2023-02-20T04:46:55;40.63;;;33.67;;
5890;SDS011;2971;52.420;7.080;2023-02-20T04:49:21;44.93;;;35.43;;
5890;SDS011;2971;52.420;7.080;2023-02-20T04:51:46;39.63;;;34.30;;
5890;SDS011;2971;52.420;7.080;2023-02-20T04:54:12;43.07;;;36.10;;
5890;SDS011;2971;52.420;7.080;2023-02-20T04:56:37;47.40;;;36.17;;
5890;SDS011;2971;52.420;7.080;2023-02-20T04:59:03;44.23;;;36.63;;
5890;SDS011;2971;52.420;7.080;2023-02-20T05:01:28;47.47;;;37.27;;
5890;SDS011;2971;52.420;7.080;2023-02-20T05:03:54;45.47;;;36.93;;
5890;SDS011;2971;52.420;7.080;2023-02-20T05:06:19;42.97;;;37.00;;
5890;SDS011;2971;52.420;7.080;2023-02-20T05:08:45;44.83;;;37.50;;
5890;SDS011;2971;52.420;7.080;2023-02-20T05:11:10;45.43;;;36.17;;
5890;SDS011;2971;52.420;7.080;2023-02-20T05:13:35;46.67;;;37.50;;
5890;SDS011;2971;52.420;7.080;2023-02-20T05:16:01;43.37;;;36.97;;
5890;SDS011;2971;52.420;7.080;2023-02-20T05:18:27;45.97;;;38.63;;
5890;SDS011;2971;52.420;7.080;2023-02-20T05:20:53;46.67;;;38.23;;
5890;SDS011;2971;52.420;7.080;2023-02-20T05:23:37;47.33;;;38.50;;
5890;SDS011;2971;52.420;7.080;2023-02-20T05:26:02;47.57;;;38.10;;
5890;SDS011;2971;52.420;7.080;2023-02-20T05:28:33;48.87;;;39.07;;
5890;SDS011;2971;52.420;7.080;2023-02-20T05:30:58;54.03;;;39.37;;
5890;SDS011;2971;52.420;7.080;2023-02-20T05:33:23;45.40;;;37.90;;
5890;SDS011;2971;52.420;7.080;2023-02-20T05:35:49;50.30;;;38.97;;
5890;SDS011;2971;52.420;7.080;2023-02-20T05:38:17;48.10;;;38.30;;
5890;SDS011;2971;52.420;7.080;2023-02-20T05:40:43;50.40;;;39.73;;
5890;SDS011;2971;52.420;7.080;2023-02-20T05:43:08;48.67;;;38.90;;
5890;SDS011;2971;52.420;7.080;2023-02-20T05:45:34;45.83;;;37.03;;
5890;SDS011;2971;52.420;7.080;2023-02-20T05:47:59;52.37;;;40.10;;
5890;SDS011;2971;52.420;7.080;2023-02-20T05:50:25;50.13;;;39.20;;
5890;SDS011;2971;52.420;7.080;2023-02-20T05:52:50;51.23;;;40.00;;
5890;SDS011;2971;52.420;7.080;2023-02-20T05:55:15;50.30;;;40.13;;
5890;SDS011;2971;52.420;7.080;2023-02-20T05:57:41;47.33;;;39.30;;
5890;SDS011;2971;52.420;7.080;2023-02-20T06:00:07;50.47;;;39.50;;
5890;SDS011;2971;52.420;7.080;2023-02-20T06:02:32;46.80;;;39.77;;
5890;SDS011;2971;52.420;7.080;2023-02-20T06:04:58;47.73;;;39.80;;
5890;SDS011;2971;52.420;7.080;2023-02-20T06:07:24;47.43;;;38.47;;
5890;SDS011;2971;52.420;7.080;2023-02-20T06:09:49;50.77;;;40.13;;
5890;SDS011;2971;52.420;7.080;2023-02-20T06:12:14;49.30;;;41.23;;
5890;SDS011;2971;52.420;7.080;2023-02-20T06:14:40;48.37;;;39.30;;
5890;SDS011;2971;52.420;7.080;2023-02-20T06:17:05;46.87;;;40.87;;
5890;SDS011;2971;52.420;7.080;2023-02-20T06:19:31;45.10;;;39.77;;
5890;SDS011;2971;52.420;7.080;2023-02-20T06:21:56;44.97;;;39.80;;
5890;SDS011;2971;52.420;7.080;2023-02-20T06:24:25;46.50;;;39.43;;
5890;SDS011;2971;52.420;7.080;2023-02-20T06:26:51;48.07;;;38.90;;
5890;SDS011;2971;52.420;7.080;2023-02-20T06:29:17;45.80;;;39.37;;
5890;SDS011;2971;52.420;7.080;2023-02-20T06:31:42;46.23;;;38.97;;
5890;SDS011;2971;52.420;7.080;2023-02-20T06:34:08;46.63;;;38.90;;
5890;SDS011;2971;52.420;7.080;2023-02-20T06:36:35;47.43;;;39.97;;
5890;SDS011;2971;52.420;7.080;2023-02-20T06:39:02;48.27;;;39.10;;
5890;SDS011;2971;52.420;7.080;2023-02-20T06:41:28;49.03;;;39.23;;
5890;SDS011;2971;52.420;7.080;2023-02-20T06:43:53;47.63;;;37.70;;
5890;SDS011;2971;52.420;7.080;2023-02-20T06:46:19;45.60;;;38.83;;
5890;SDS011;2971;52.420;7.080;2023-02-20T06:48:47;45.30;;;38.47;;
5890;SDS011;2971;52.420;7.080;2023-02-20T06:51:17;47.40;;;39.00;;
5890;SDS011;2971;52.420;7.080;2023-02-20T06:53:43;46.63;;;37.20;;
5890;SDS011;2971;52.420;7.080;2023-02-20T06:56:09;45.07;;;38.77;;
5890;SDS011;2971;52.420;7.080;2023-02-20T06:58:35;44.57;;;38.03;;
5890;SDS011;2971;52.420;7.080;2023-02-20T07:01:01;43.47;;;36.73;;
5890;SDS011;2971;52.420;7.080;2023-02-20T07:03:26;42.77;;;37.60;;
5890;SDS011;2971;52.420;7.080;2023-02-20T07:05:51;46.77;;;38.10;;
5890;SDS011;2971;52.420;7.080;2023-02-20T07:08:17;43.07;;;36.70;;
5890;SDS011;2971;52.420;7.080;2023-02-20T07:10:42;43.23;;;37.10;;
5890;SDS011;2971;52.420;7.080;2023-02-20T07:13:08;42.43;;;36.87;;
5890;SDS011;2971;52.420;7.080;2023-02-20T07:15:33;48.33;;;36.50;;
5890;SDS011;2971;52.420;7.080;2023-02-20T07:17:58;41.23;;;34.27;;
5890;SDS011;2971;52.420;7.080;2023-02-20T07:20:24;44.80;;;35.13;;
5890;SDS011;2971;52.420;7.080;2023-02-20T07:22:50;49.50;;;36.40;;
5890;SDS011;2971;52.420;7.080;2023-02-20T07:25:16;45.60;;;34.57;;
5890;SDS011;2971;52.420;7.080;2023-02-20T07:27:41;44.33;;;33.67;;
5890;SDS011;2971;52.420;7.080;2023-02-20T07:30:07;47.47;;;35.17;;
5890;SDS011;2971;52.420;7.080;2023-02-20T07:32:32;41.50;;;32.97;;
5890;SDS011;2971;52.420;7.080;2023-02-20T07:34:58;44.20;;;33.30;;
5890;SDS011;2971;52.420;7.080;2023-02-20T07:37:23;43.63;;;33.00;;
5890;SDS011;2971;52.420;7.080;2023-02-20T07:39:49;39.03;;;32.37;;
5890;SDS011;2971;52.420;7.080;2023-02-20T07:42:15;40.67;;;32.43;;
5890;SDS011;2971;52.420;7.080;2023-02-20T07:44:42;39.77;;;30.97;;
5890;SDS011;2971;52.420;7.080;2023-02-20T07:47:10;37.93;;;31.13;;
5890;SDS011;2971;52.420;7.080;2023-02-20T07:49:36;41.80;;;31.00;;
5890;SDS011;2971;52.420;7.080;2023-02-20T07:52:01;40.13;;;31.47;;
5890;SDS011;2971;52.420;7.080;2023-02-20T07:54:27;40.23;;;30.97;;
5890;SDS011;2971;52.420;7.080;2023-02-20T07:56:53;39.87;;;31.20;;
5890;SDS011;2971;52.420;7.080;2023-02-20T07:59:18;39.57;;;29.63;;
5890;SDS011;2971;52.420;7.080;2023-02-20T08:01:44;38.53;;;28.47;;
5890;SDS011;2971;52.420;7.080;2023-02-20T08:04:09;40.33;;;28.80;;
5890;SDS011;2971;52.420;7.080;2023-02-20T08:06:34;37.37;;;28.50;;
5890;SDS011;2971;52.420;7.080;2023-02-20T08:09:00;36.20;;;28.13;;
5890;SDS011;2971;52.420;7.080;2023-02-20T08:11:25;36.73;;;27.93;;
5890;SDS011;2971;52.420;7.080;2023-02-20T08:13:51;38.37;;;27.30;;
5890;SDS011;2971;52.420;7.080;2023-02-20T08:16:19;35.10;;;27.57;;
5890;SDS011;2971;52.420;7.080;2023-02-20T08:18:45;35.73;;;27.27;;
5890;SDS011;2971;52.420;7.080;2023-02-20T08:21:10;34.47;;;25.83;;
5890;SDS011;2971;52.420;7.080;2023-02-20T08:23:36;37.13;;;27.00;;
5890;SDS011;2971;52.420;7.080;2023-02-20T08:26:02;35.70;;;27.57;;
5890;SDS011;2971;52.420;7.080;2023-02-20T08:28:28;38.57;;;26.37;;
5890;SDS011;2971;52.420;7.080;2023-02-20T08:30:54;34.43;;;25.63;;
5890;SDS011;2971;52.420;7.080;2023-02-20T08:33:19;35.87;;;24.90;;
5890;SDS011;2971;52.420;7.080;2023-02-20T08:35:45;31.70;;;23.90;;
5890;SDS011;2971;52.420;7.080;2023-02-20T08:38:26;28.53;;;22.77;;
5890;SDS011;2971;52.420;7.080;2023-02-20T08:40:54;31.07;;;22.90;;
5890;SDS011;2971;52.420;7.080;2023-02-20T08:43:19;30.03;;;22.67;;
5890;SDS011;2971;52.420;7.080;2023-02-20T08:45:45;31.63;;;23.60;;
5890;SDS011;2971;52.420;7.080;2023-02-20T08:48:11;29.13;;;22.43;;
5890;SDS011;2971;52.420;7.080;2023-02-20T08:50:37;30.73;;;21.40;;
5890;SDS011;2971;52.420;7.080;2023-02-20T08:53:02;31.77;;;21.70;;
5890;SDS011;2971;52.420;7.080;2023-02-20T08:55:28;29.40;;;19.83;;
5890;SDS011;2971;52.420;7.080;2023-02-20T08:57:53;27.57;;;19.73;;
5890;SDS011;2971;52.420;7.080;2023-02-20T09:00:20;29.63;;;19.97;;
5890;SDS011;2971;52.420;7.080;2023-02-20T09:02:46;28.93;;;19.47;;
5890;SDS011;2971;52.420;7.080;2023-02-20T09:05:12;30.27;;;20.37;;
5890;SDS011;2971;52.420;7.080;2023-02-20T09:07:38;25.67;;;19.00;;
5890;SDS011;2971;52.420;7.080;2023-02-20T09:10:04;23.23;;;17.20;;
5890;SDS011;2971;52.420;7.080;2023-02-20T09:12:30;28.90;;;18.43;;
5890;SDS011;2971;52.420;7.080;2023-02-20T09:14:56;31.00;;;19.33;;
5890;SDS011;2971;52.420;7.080;2023-02-20T09:17:24;26.60;;;17.23;;
5890;SDS011;2971;52.420;7.080;2023-02-20T09:19:50;25.37;;;16.37;;
5890;SDS011;2971;52.420;7.080;2023-02-20T09:22:20;24.97;;;16.23;;
5890;SDS011;2971;52.420;7.080;2023-02-20T09:24:49;26.40;;;17.13;;
5890;SDS011;2971;52.420;7.080;2023-02-20T09:27:15;26.13;;;17.50;;
5890;SDS011;2971;52.420;7.080;2023-02-20T09:29:40;26.63;;;17.13;;
5890;SDS011;2971;52.420;7.080;2023-02-20T09:32:07;29.83;;;16.50;;
5890;SDS011;2971;52.420;7.080;2023-02-20T09:34:33;25.40;;;15.90;;
5890;SDS011;2971;52.420;7.080;2023-02-20T09:36:58;25.00;;;16.17;;
5890;SDS011;2971;52.420;7.080;2023-02-20T09:39:24;27.80;;;16.37;;
5890;SDS011;2971;52.420;7.080;2023-02-20T09:45:19;24.97;;;16.50;;
5890;SDS011;2971;52.420;7.080;2023-02-20T09:53:21;26.50;;;16.17;;
5890;SDS011;2971;52.420;7.080;2023-02-20T09:55:50;25.87;;;15.43;;
5890;SDS011;2971;52.420;7.080;2023-02-20T09:58:19;25.10;;;15.20;;
5890;SDS011;2971;52.420;7.080;2023-02-20T10:00:47;24.17;;;14.93;;
5890;SDS011;2971;52.420;7.080;2023-02-20T10:03:19;22.87;;;14.50;;
5890;SDS011;2971;52.420;7.080;2023-02-20T10:05:47;24.07;;;15.47;;
5890;SDS011;2971;52.420;7.080;2023-02-20T10:08:15;22.03;;;15.13;;
5890;SDS011;2971;52.420;7.080;2023-02-20T10:10:43;26.30;;;14.93;;
5890;SDS011;2971;52.420;7.080;2023-02-20T10:13:15;24.20;;;15.47;;
5890;SDS011;2971;52.420;7.080;2023-02-20T10:15:50;25.40;;;14.87;;
5890;SDS011;2971;52.420;7.080;2023-02-20T10:18:23;25.47;;;14.27;;
5890;SDS011;2971;52.420;7.080;2023-02-20T10:23:49;25.47;;;15.30;;
5890;SDS011;2971;52.420;7.080;2023-02-20T10:26:25;24.13;;;15.03;;
5890;SDS011;2971;52.420;7.080;2023-02-20T10:28:52;21.70;;;14.60;;
5890;SDS011;2971;52.420;7.080;2023-02-20T10:31:37;23.27;;;15.03;;
5890;SDS011;2971;52.420;7.080;2023-02-20T10:37:05;22.13;;;14.23;;
5890;SDS011;2971;52.420;7.080;2023-02-20T10:39:34;22.60;;;13.90;;
5890;SDS011;2971;52.420;7.080;2023-02-20T10:48:16;25.53;;;15.03;;
5890;SDS011;2971;52.420;7.080;2023-02-20T10:53:59;26.17;;;15.17;;
5890;SDS011;2971;52.420;7.080;2023-02-20T10:56:37;23.13;;;15.13;;
5890;SDS011;2971;52.420;7.080;2023-02-20T10:59:07;24.50;;;15.33;;
5890;SDS011;2971;52.420;7.080;2023-02-20T11:01:41;23.27;;;15.23;;
5890;SDS011;2971;52.420;7.080;2023-02-20T11:04:18;24.83;;;14.57;;
5890;SDS011;2971;52.420;7.080;2023-02-20T11:06:49;21.90;;;15.00;;
5890;SDS011;2971;52.420;7.080;2023-02-20T11:09:21;27.00;;;16.00;;
5890;SDS011;2971;52.420;7.080;2023-02-20T11:11:50;21.20;;;14.83;;
5890;SDS011;2971;52.420;7.080;2023-02-20T11:17:35;26.00;;;14.77;;
5890;SDS011;2971;52.420;7.080;2023-02-20T11:22:11;21.13;;;15.20;;
5890;SDS011;2971;52.420;7.080;2023-02-20T11:24:39;24.20;;;15.57;;
5890;SDS011;2971;52.420;7.080;2023-02-20T11:27:13;20.50;;;14.40;;
5890;SDS011;2971;52.420;7.080;2023-02-20T11:29:58;27.53;;;15.67;;
5890;SDS011;2971;52.420;7.080;2023-02-20T11:32:35;24.13;;;14.57;;
5890;SDS011;2971;52.420;7.080;2023-02-20T11:37:41;23.40;;;14.67;;
5890;SDS011;2971;52.420;7.080;2023-02-20T11:40:14;23.47;;;14.87;;
5890;SDS011;2971;52.420;7.080;2023-02-20T11:42:40;22.13;;;15.33;;
5890;SDS011;2971;52.420;7.080;2023-02-20T11:47:37;22.43;;;15.77;;
5890;SDS011;2971;52.420;7.080;2023-02-20T11:52:37;24.80;;;15.47;;
5890;SDS011;2971;52.420;7.080;2023-02-20T11:55:16;28.60;;;16.17;;
5890;SDS011;2971;52.420;7.080;2023-02-20T11:57:45;23.93;;;15.10;;
5890;SDS011;2971;52.420;7.080;2023-02-20T12:00:18;24.80;;;15.83;;
5890;SDS011;2971;52.420;7.080;2023-02-20T12:02:46;29.10;;;16.77;;
5890;SDS011;2971;52.420;7.080;2023-02-20T12:05:16;22.60;;;14.50;;
5890;SDS011;2971;52.420;7.080;2023-02-20T12:12:56;18.97;;;14.70;;
5890;SDS011;2971;52.420;7.080;2023-02-20T12:15:23;21.97;;;14.83;;
5890;SDS011;2971;52.420;7.080;2023-02-20T12:20:28;24.83;;;14.43;;
5890;SDS011;2971;52.420;7.080;2023-02-20T12:23:06;23.10;;;14.77;;
5890;SDS011;2971;52.420;7.080;2023-02-20T12:31:20;20.43;;;15.67;;
5890;SDS011;2971;52.420;7.080;2023-02-20T12:33:56;23.30;;;15.33;;
5890;SDS011;2971;52.420;7.080;2023-02-20T12:36:38;22.40;;;15.27;;
5890;SDS011;2971;52.420;7.080;2023-02-20T12:41:49;20.47;;;15.17;;
5890;SDS011;2971;52.420;7.080;2023-02-20T12:47:02;21.53;;;14.57;;
5890;SDS011;2971;52.420;7.080;2023-02-20T13:00:55;21.20;;;15.10;;
5890;SDS011;2971;52.420;7.080;2023-02-20T13:03:34;20.83;;;15.93;;
5890;SDS011;2971;52.420;7.080;2023-02-20T13:06:04;22.77;;;15.93;;
5890;SDS011;2971;52.420;7.080;2023-02-20T13:11:00;22.63;;;16.10;;
5890;SDS011;2971;52.420;7.080;2023-02-20T13:13:32;21.20;;;17.30;;
5890;SDS011;2971;52.420;7.080;2023-02-20T13:16:03;24.23;;;17.23;;
5890;SDS011;2971;52.420;7.080;2023-02-20T13:18:40;21.10;;;17.57;;
5890;SDS011;2971;52.420;7.080;2023-02-20T13:21:09;24.70;;;18.63;;
5890;SDS011;2971;52.420;7.080;2023-02-20T13:23:37;24.13;;;19.10;;
5890;SDS011;2971;52.420;7.080;2023-02-20T13:26:43;25.13;;;20.60;;
5890;SDS011;2971;52.420;7.080;2023-02-20T13:28:51;25.57;;;20.30;;
5890;SDS011;2971;52.420;7.080;2023-02-20T13:31:39;27.43;;;20.90;;
5890;SDS011;2971;52.420;7.080;2023-02-20T13:36:45;27.63;;;21.57;;
5890;SDS011;2971;52.420;7.080;2023-02-20T13:50:25;30.03;;;23.67;;
5890;SDS011;2971;52.420;7.080;2023-02-20T13:55:11;30.17;;;25.53;;
5890;SDS011;2971;52.420;7.080;2023-02-20T13:57:42;30.70;;;25.20;;
5890;SDS011;2971;52.420;7.080;2023-02-20T14:00:18;29.43;;;24.67;;
5890;SDS011;2971;52.420;7.080;2023-02-20T14:02:48;28.67;;;25.53;;
5890;SDS011;2971;52.420;7.080;2023-02-20T14:05:21;30.03;;;26.60;;
5890;SDS011;2971;52.420;7.080;2023-02-20T14:07:51;30.20;;;26.93;;
5890;SDS011;2971;52.420;7.080;2023-02-20T14:10:30;30.17;;;26.33;;
5890;SDS011;2971;52.420;7.080;2023-02-20T14:12:59;31.73;;;27.07;;
5890;SDS011;2971;52.420;7.080;2023-02-20T14:15:27;29.03;;;26.03;;
5890;SDS011;2971;52.420;7.080;2023-02-20T14:17:54;32.10;;;27.33;;
5890;SDS011;2971;52.420;7.080;2023-02-20T14:20:24;32.17;;;27.73;;
5890;SDS011;2971;52.420;7.080;2023-02-20T14:26:00;32.60;;;28.00;;
5890;SDS011;2971;52.420;7.080;2023-02-20T14:28:31;31.17;;;27.70;;
5890;SDS011;2971;52.420;7.080;2023-02-20T14:31:18;33.00;;;28.23;;
5890;SDS011;2971;52.420;7.080;2023-02-20T14:33:47;30.57;;;27.37;;
5890;SDS011;2971;52.420;7.080;2023-02-20T14:39:05;30.00;;;26.63;;
5890;SDS011;2971;52.420;7.080;2023-02-20T14:41:52;28.57;;;25.57;;
5890;SDS011;2971;52.420;7.080;2023-02-20T14:44:19;30.23;;;26.23;;
5890;SDS011;2971;52.420;7.080;2023-02-20T14:46:46;30.10;;;26.07;;
5890;SDS011;2971;52.420;7.080;2023-02-20T14:49:15;29.10;;;24.93;;
5890;SDS011;2971;52.420;7.080;2023-02-20T14:51:47;30.97;;;26.57;;
5890;SDS011;2971;52.420;7.080;2023-02-20T14:56:37;29.37;;;26.20;;
5890;SDS011;2971;52.420;7.080;2023-02-20T15:02:23;30.37;;;26.93;;
5890;SDS011;2971;52.420;7.080;2023-02-20T15:04:52;32.57;;;26.50;;
5890;SDS011;2971;52.420;7.080;2023-02-20T15:07:22;32.77;;;26.90;;
5890;SDS011;2971;52.420;7.080;2023-02-20T15:09:50;30.33;;;27.17;;
5890;SDS011;2971;52.420;7.080;2023-02-20T15:13:02;30.30;;;26.83;;
5890;SDS011;2971;52.420;7.080;2023-02-20T15:17:34;30.67;;;27.17;;
5890;SDS011;2971;52.420;7.080;2023-02-20T15:20:47;29.93;;;26.90;;
5890;SDS011;2971;52.420;7.080;2023-02-20T15:25:39;29.53;;;26.23;;
5890;SDS011;2971;52.420;7.080;2023-02-20T15:28:10;31.90;;;28.70;;
5890;SDS011;2971;52.420;7.080;2023-02-20T15:33:24;32.43;;;26.83;;
5890;SDS011;2971;52.420;7.080;2023-02-20T15:35:50;30.77;;;27.00;;
5890;SDS011;2971;52.420;7.080;2023-02-20T15:38:15;29.70;;;25.33;;
5890;SDS011;2971;52.420;7.080;2023-02-20T15:40:41;30.33;;;26.60;;
5890;SDS011;2971;52.420;7.080;2023-02-20T15:43:12;28.43;;;25.40;;
5890;SDS011;2971;52.420;7.080;2023-02-20T15:45:38;29.43;;;26.33;;
5890;SDS011;2971;52.420;7.080;2023-02-20T15:48:04;29.10;;;25.40;;
5890;SDS011;2971;52.420;7.080;2023-02-20T15:50:31;32.03;;;25.97;;
5890;SDS011;2971;52.420;7.080;2023-02-20T15:52:57;30.03;;;25.90;;
5890;SDS011;2971;52.420;7.080;2023-02-20T15:55:24;31.73;;;26.13;;
5890;SDS011;2971;52.420;7.080;2023-02-20T15:57:52;30.27;;;26.97;;
5890;SDS011;2971;52.420;7.080;2023-02-20T16:00:23;30.73;;;27.47;;
5890;SDS011;2971;52.420;7.080;2023-02-20T16:02:54;29.00;;;26.03;;
5890;SDS011;2971;52.420;7.080;2023-02-20T16:05:20;31.77;;;26.97;;
5890;SDS011;2971;52.420;7.080;2023-02-20T16:07:45;31.97;;;27.23;;
5890;SDS011;2971;52.420;7.080;2023-02-20T16:10:12;30.17;;;27.07;;
5890;SDS011;2971;52.420;7.080;2023-02-20T16:12:39;30.57;;;27.37;;
5890;SDS011;2971;52.420;7.080;2023-02-20T16:15:05;32.23;;;28.30;;
5890;SDS011;2971;52.420;7.080;2023-02-20T16:17:31;32.30;;;28.20;;
5890;SDS011;2971;52.420;7.080;2023-02-20T16:19:58;30.50;;;26.63;;
5890;SDS011;2971;52.420;7.080;2023-02-20T16:22:24;34.93;;;27.77;;
5890;SDS011;2971;52.420;7.080;2023-02-20T16:24:49;32.13;;;28.70;;
5890;SDS011;2971;52.420;7.080;2023-02-20T16:29:48;31.27;;;27.70;;
5890;SDS011;2971;52.420;7.080;2023-02-20T16:32:15;31.43;;;27.50;;
5890;SDS011;2971;52.420;7.080;2023-02-20T16:34:45;29.93;;;26.73;;
5890;SDS011;2971;52.420;7.080;2023-02-20T16:37:10;33.17;;;27.73;;
5890;SDS011;2971;52.420;7.080;2023-02-20T16:39:36;33.23;;;29.53;;
5890;SDS011;2971;52.420;7.080;2023-02-20T16:42:02;32.77;;;28.70;;
5890;SDS011;2971;52.420;7.080;2023-02-20T16:44:40;33.13;;;28.80;;
5890;SDS011;2971;52.420;7.080;2023-02-20T16:47:09;33.67;;;29.40;;
5890;SDS011;2971;52.420;7.080;2023-02-20T16:49:36;35.47;;;31.07;;
5890;SDS011;2971;52.420;7.080;2023-02-20T16:52:03;34.20;;;30.60;;
5890;SDS011;2971;52.420;7.080;2023-02-20T16:54:41;35.53;;;31.40;;
5890;SDS011;2971;52.420;7.080;2023-02-20T16:57:08;38.00;;;32.40;;
5890;SDS011;2971;52.420;7.080;2023-02-20T16:59:34;40.07;;;32.27;;
5890;SDS011;2971;52.420;7.080;2023-02-20T17:01:59;38.27;;;34.10;;
5890;SDS011;2971;52.420;7.080;2023-02-20T17:04:24;39.97;;;34.20;;
5890;SDS011;2971;52.420;7.080;2023-02-20T17:06:50;41.10;;;34.13;;
5890;SDS011;2971;52.420;7.080;2023-02-20T17:09:15;40.40;;;33.07;;
5890;SDS011;2971;52.420;7.080;2023-02-20T17:11:41;42.37;;;34.70;;
5890;SDS011;2971;52.420;7.080;2023-02-20T17:14:06;41.00;;;35.07;;
5890;SDS011;2971;52.420;7.080;2023-02-20T17:16:32;38.60;;;33.93;;
5890;SDS011;2971;52.420;7.080;2023-02-20T17:18:58;42.87;;;35.50;;
5890;SDS011;2971;52.420;7.080;2023-02-20T17:21:23;41.97;;;36.07;;
5890;SDS011;2971;52.420;7.080;2023-02-20T17:23:48;42.73;;;36.07;;
5890;SDS011;2971;52.420;7.080;2023-02-20T17:26:14;44.03;;;37.07;;